• Join FlightAware (Why Join?)
  • Login
  • US Flag 
02:09AM EDT


 

Airport Tracker/Info


-or-


 

Live Flight TrackerFlight Track Log ✈ CUA5906 ✈ 10-Mar-2014 ✈ ZSLG / LYG - ZBNY / NAY

Flight Track Log - Related Links

Times and Time Zones

All times are in EDT time to prevent confusion due to time zone crossing. See the CUA5906 flight status page for this flight to view local times or setup timezone preferences in your user account.

Time Position Orientation Groundspeed Altitude Reporting Facility
EDT Latitude Longitude Course Direction KTS MPH feet Rate Location/Type
01:28AM 35.0616 118.6546 340° North  Level Estimated
01:29AM 35.1432 118.6179 340° North  Level Estimated
01:30AM 35.2248 118.5810 340° North  Level Estimated
01:31AM 35.3063 118.5441 340° North  Level Estimated
01:32AM 35.3879 118.5071 340° North  Level Estimated
01:33AM 35.4695 118.4701 340° North  Level Estimated
01:34AM 35.5510 118.4330 340° North  Level Estimated
01:35AM 35.6326 118.3958 340° North  Level Estimated
01:36AM 35.7141 118.3585 340° North  Level Estimated
01:37AM 35.7956 118.3211 340° North  Level Estimated
01:38AM 35.8771 118.2837 340° North  Level Estimated
01:39AM 35.9586 118.2462 340° North  Level Estimated
01:40AM 36.0401 118.2086 340° North  Level Estimated
01:41AM 36.1216 118.1710 340° North  Level Estimated
01:42AM 36.2030 118.1332 340° North  Level Estimated
01:43AM 36.2845 118.0954 339° North  Level Estimated
01:44AM 36.3659 118.0575 339° North  Level Estimated
01:45AM 36.4473 118.0195 339° North  Level Estimated
01:46AM 36.5288 117.9815 339° North  Level Estimated
01:47AM 36.6101 117.9433 339° North  Level Estimated
01:48AM 36.6915 117.9051 339° North  Level Estimated
01:49AM 36.7729 117.8668 339° North  Level Estimated
01:50AM 36.8543 117.8284 339° North  Level Estimated
01:51AM 36.9356 117.7899 339° North  Level Estimated
01:52AM 37.0170 117.7514 339° North  Level Estimated
01:53AM 37.0983 117.7128 339° North  Level Estimated
01:54AM 37.1796 117.6741 339° North  Level Estimated
01:55AM 37.2609 117.6353 339° North  Level Estimated
01:56AM 37.3422 117.5964 339° North  Level Estimated
01:57AM 37.4235 117.5574 339° North  Level Estimated
01:58AM 37.5047 117.5184 339° North  Level Estimated
01:59AM 37.5860 117.4792 339° North  Level Estimated
02:00AM 37.6672 117.4400 339° North  Level Estimated
02:01AM 37.7484 117.4007 339° North  Level Estimated
02:02AM 37.8297 117.3613 339° North  Level Estimated
02:03AM 37.9109 117.3219 339° North  Level Estimated
02:04AM 37.9920 117.2823 339° North  Level Estimated
02:05AM 38.0732 117.2426 339° North  Level Estimated
02:06AM 38.1544 117.2029 339° North  Level Estimated
02:07AM 38.2355 117.1631 339° North  Level Estimated
02:08AM 38.3166 117.1232 339° North  Level Estimated
02:09AM 38.3978 117.0831 339° North  Level Estimated
02:10AM 38.4789 117.0430 339° North  Level Estimated
02:11AM 38.5599 117.0029 339° North  Level Estimated
02:12AM 38.6410 116.9626 339° North  Level Estimated
02:13AM 38.7221 116.9222 339° North  Level Estimated
02:14AM 38.8031 116.8818 339° North  Level Estimated
02:15AM 38.8842 116.8412 339° North  Level Estimated
02:16AM 38.9652 116.8006 339° North  Level Estimated
02:17AM 39.0462 116.7598 339° North  Level Estimated
02:18AM 39.1272 116.7190 339° North  Level Estimated
02:19AM 39.2081 116.6780 339° North  Level Estimated
02:20AM 39.2891 116.6370 339° North  Level Estimated
02:21AM 39.3701 116.5959 339° North  Level Estimated
02:22AM 39.4510 116.5547 339° North  Level Estimated
02:23AM 39.5319 116.5134 339° North  Level Estimated
02:24AM 39.6128 116.4720 338° Northwest  Level Estimated
02:25AM 39.6937 116.4305 338° Northwest  Level Estimated
02:26AM 39.7746 116.3889 338° Northwest  Level Estimated
02:27AM 39.7794 116.3864 338° Northwest  Level Estimated
02:28AM 39.7794 116.3864 North  Level Estimated
02:29AM 39.7794 116.3864 North  Level Estimated
02:30AM 39.7794 116.3864 North  Level Estimated
02:31AM 39.7794 116.3864 North  Level Estimated
02:32AM 39.7794 116.3864 North  Level Estimated
02:33AM 39.7794 116.3864 North  Level Estimated
02:34AM 39.7794 116.3864 North  Level Estimated
02:35AM 39.7794 116.3864 North  Level Estimated
02:36AM 39.7794 116.3864 North  Level Estimated
02:37AM 39.7794 116.3864 North  Level Estimated
02:38AM 39.7794 116.3864 North  Level Estimated
02:39AM 39.7794 116.3864 North  Level Estimated